createdAt,value
2023-05-10T00:02:01.827Z,100651.72
2023-05-10T00:04:28.555Z,100636.25
2023-05-10T00:06:55.846Z,100640.41
2023-05-10T00:09:22.413Z,100646.19
2023-05-10T00:11:48.977Z,100644.03
2023-05-10T00:14:15.572Z,100646.59
2023-05-10T00:16:42.509Z,100638.03
2023-05-10T00:19:09.147Z,100642.19
2023-05-10T00:21:35.727Z,100639.84
2023-05-10T00:24:03.388Z,100643.41
2023-05-10T00:26:29.909Z,100638.16
2023-05-10T00:28:56.608Z,100631.44
2023-05-10T00:31:23.695Z,100637.72
2023-05-10T00:33:50.272Z,100634.16
2023-05-10T00:36:16.876Z,100626.75
2023-05-10T00:38:43.521Z,100630.50
2023-05-10T00:41:10.383Z,100627.72
2023-05-10T00:43:36.998Z,100627.88
2023-05-10T00:46:04.319Z,100623.69
2023-05-10T00:48:31.063Z,100619.84
2023-05-10T00:50:57.604Z,100617.97
2023-05-10T00:53:25.494Z,100608.97
2023-05-10T00:55:52.332Z,100616.44
2023-05-10T00:58:19.022Z,100604.94
2023-05-10T01:03:50.817Z,100588.03
2023-05-10T01:06:17.571Z,100592.97
2023-05-10T01:08:44.300Z,100592.31
2023-05-10T01:11:11.140Z,100562.22
2023-05-10T01:13:40.411Z,100578.59
2023-05-10T01:16:07.912Z,100575.69
2023-05-10T01:18:37.631Z,100578.41
2023-05-10T01:21:13.122Z,100572.13
2023-05-10T01:23:46.436Z,100577.38
2023-05-10T01:26:31.705Z,100573.81
2023-05-10T01:29:14.981Z,100567.75
2023-05-10T01:32:03.190Z,100576.25
2023-05-10T01:34:42.052Z,100570.91
2023-05-10T01:37:43.352Z,100573.34
2023-05-10T01:40:27.397Z,100572.13
2023-05-10T01:43:00.847Z,100562.41
2023-05-10T01:45:40.554Z,100563.88
2023-05-10T01:48:11.692Z,100563.88
2023-05-10T01:50:44.895Z,100564.16
2023-05-10T01:53:14.091Z,100561.34
2023-05-10T01:55:53.487Z,100563.44
2023-05-10T01:58:24.576Z,100562.13
2023-05-10T02:00:53.501Z,100559.47
2023-05-10T02:03:24.465Z,100561.06
2023-05-10T02:05:52.984Z,100551.97
2023-05-10T02:08:21.904Z,100563.00
2023-05-10T02:10:51.351Z,100561.28
2023-05-10T02:13:19.856Z,100569.78
2023-05-10T02:15:49.735Z,100571.19
2023-05-10T02:18:17.927Z,100568.53
2023-05-10T02:20:47.484Z,100571.97
2023-05-10T02:23:16.487Z,100577.56
2023-05-10T02:25:44.868Z,100577.06
2023-05-10T02:28:13.778Z,100573.41
2023-05-10T02:30:41.203Z,100573.63
2023-05-10T02:33:08.897Z,100566.56
2023-05-10T02:35:37.556Z,100566.63
2023-05-10T02:38:07.028Z,100563.06
2023-05-10T02:40:34.834Z,100563.78
2023-05-10T02:43:03.564Z,100561.13
2023-05-10T02:45:32.349Z,100567.22
2023-05-10T02:47:59.830Z,100564.19
2023-05-10T02:50:29.181Z,100573.50
2023-05-10T02:53:07.732Z,100573.69
2023-05-10T02:55:39.246Z,100574.34
2023-05-10T02:58:05.924Z,100577.25
2023-05-10T03:00:32.826Z,100573.56
2023-05-10T03:03:04.359Z,100575.75
2023-05-10T03:05:31.245Z,100572.38
2023-05-10T03:07:57.925Z,100573.44
2023-05-10T03:10:31.820Z,100574.44
2023-05-10T03:13:18.395Z,100574.47
2023-05-10T03:16:08.803Z,100565.88
2023-05-10T03:18:54.602Z,100565.03
2023-05-10T03:21:26.843Z,100573.50
2023-05-10T03:24:24.343Z,100569.66
2023-05-10T03:26:52.971Z,100574.19
2023-05-10T03:29:21.319Z,100577.56
2023-05-10T03:31:48.049Z,100578.94
2023-05-10T03:34:14.737Z,100577.22
2023-05-10T03:36:41.460Z,100579.63
2023-05-10T03:39:07.966Z,100581.66
2023-05-10T03:41:34.632Z,100567.78
2023-05-10T03:44:01.246Z,100567.47
2023-05-10T03:46:28.297Z,100560.06
2023-05-10T03:48:54.944Z,100557.69
2023-05-10T03:51:21.628Z,100545.53
2023-05-10T03:53:48.200Z,100537.13
2023-05-10T03:56:14.844Z,100534.06
2023-05-10T03:58:41.413Z,100540.81
2023-05-10T04:01:08.016Z,100540.50
2023-05-10T04:03:36.566Z,100548.59
2023-05-10T04:06:03.841Z,100551.97
2023-05-10T04:08:30.665Z,100559.41
2023-05-10T04:11:10.519Z,100562.41
2023-05-10T04:13:37.647Z,100558.88
2023-05-10T04:16:04.790Z,100553.66
2023-05-10T04:18:32.254Z,100562.41
2023-05-10T04:20:58.785Z,100561.06
2023-05-10T04:23:25.351Z,100561.44
2023-05-10T04:25:51.928Z,100556.69
2023-05-10T04:28:18.507Z,100555.00
2023-05-10T04:30:45.089Z,100543.88
2023-05-10T04:33:11.706Z,100554.00
2023-05-10T04:35:38.254Z,100554.28
2023-05-10T04:38:04.837Z,100547.03
2023-05-10T04:40:31.408Z,100554.78
2023-05-10T04:42:58.074Z,100554.13
2023-05-10T04:45:24.606Z,100559.88
2023-05-10T04:47:51.194Z,100556.66
2023-05-10T04:50:18.664Z,100557.66
2023-05-10T04:52:45.412Z,100558.53
2023-05-10T04:55:11.976Z,100557.66
2023-05-10T04:57:38.570Z,100551.22
2023-05-10T05:00:05.950Z,100562.69
2023-05-10T05:02:32.605Z,100577.03
2023-05-10T05:04:59.407Z,100570.13
2023-05-10T05:07:26.346Z,100557.66
2023-05-10T05:09:53.018Z,100562.38
2023-05-10T05:12:19.634Z,100562.88
2023-05-10T05:14:46.338Z,100568.44
2023-05-10T05:17:13.004Z,100562.53
2023-05-10T05:19:39.660Z,100575.50
2023-05-10T05:22:08.667Z,100564.56
2023-05-10T05:24:39.139Z,100574.81
2023-05-10T05:27:06.714Z,100580.22
2023-05-10T05:29:33.571Z,100570.78
2023-05-10T05:32:00.341Z,100569.59
2023-05-10T05:34:27.008Z,100565.91
2023-05-10T05:36:53.776Z,100573.13
2023-05-10T05:39:20.352Z,100572.13
2023-05-10T05:41:47.662Z,100569.09
2023-05-10T05:44:14.246Z,100576.69
2023-05-10T05:46:40.910Z,100577.34
2023-05-10T05:49:07.519Z,100580.03
2023-05-10T05:51:34.100Z,100579.88
2023-05-10T05:54:00.736Z,100578.72
2023-05-10T05:56:27.899Z,100585.94
2023-05-10T05:58:54.525Z,100575.47
2023-05-10T06:01:21.337Z,100582.09
2023-05-10T06:03:48.201Z,100573.31
2023-05-10T06:06:15.586Z,100576.50
2023-05-10T06:08:42.140Z,100578.50
2023-05-10T06:11:08.718Z,100575.31
2023-05-10T06:13:36.282Z,100583.25
2023-05-10T06:16:03.945Z,100586.25
2023-05-10T06:18:30.523Z,100593.69
2023-05-10T06:20:57.332Z,100590.66
2023-05-10T06:23:24.339Z,100587.28
2023-05-10T06:25:50.887Z,100587.59
2023-05-10T06:28:17.566Z,100591.63
2023-05-10T06:30:44.280Z,100588.91
2023-05-10T06:33:11.021Z,100586.56
2023-05-10T06:35:37.877Z,100586.38
2023-05-10T06:38:04.550Z,100590.25
2023-05-10T06:40:31.109Z,100599.84
2023-05-10T06:42:57.727Z,100591.06
2023-05-10T06:45:24.316Z,100587.03
2023-05-10T06:47:50.905Z,100585.38
2023-05-10T06:50:17.609Z,100589.06
2023-05-10T06:52:44.587Z,100589.75
2023-05-10T06:55:11.621Z,100596.66
2023-05-10T06:57:38.230Z,100591.28
2023-05-10T07:00:05.877Z,100591.78
2023-05-10T07:02:32.662Z,100585.06
2023-05-10T07:05:00.974Z,100592.28
2023-05-10T07:07:42.162Z,100590.25
2023-05-10T07:10:09.319Z,100598.72
2023-05-10T07:12:35.925Z,100596.88
2023-05-10T07:15:02.606Z,100609.47
2023-05-10T07:17:29.306Z,100599.00
2023-05-10T07:19:55.944Z,100601.00
2023-05-10T07:22:22.604Z,100604.03
2023-05-10T07:24:49.271Z,100600.66
2023-05-10T07:27:15.895Z,100603.38
2023-05-10T07:29:42.650Z,100606.75
2023-05-10T07:32:09.366Z,100607.06
2023-05-10T07:34:36.136Z,100617.63
2023-05-10T07:37:02.878Z,100614.22
2023-05-10T07:39:29.501Z,100621.47
2023-05-10T07:41:56.507Z,100608.47
2023-05-10T07:44:23.631Z,100608.25
2023-05-10T07:46:50.729Z,100615.34
2023-05-10T07:49:17.539Z,100634.88
2023-05-10T07:51:44.346Z,100609.59
2023-05-10T07:54:10.973Z,100621.69
2023-05-10T07:56:37.576Z,100626.22
2023-05-10T07:59:05.244Z,100632.47
2023-05-10T08:01:35.857Z,100634.19
2023-05-10T08:04:02.915Z,100616.63
2023-05-10T08:06:31.046Z,100623.91
2023-05-10T08:08:58.537Z,100627.81
2023-05-10T08:11:25.750Z,100622.44
2023-05-10T08:13:52.787Z,100628.84
2023-05-10T08:16:19.892Z,100615.34
2023-05-10T08:18:47.994Z,100619.94
2023-05-10T08:21:15.666Z,100629.91
2023-05-10T08:23:42.695Z,100631.63
2023-05-10T08:26:09.326Z,100621.88
2023-05-10T08:28:36.173Z,100628.97
2023-05-10T08:31:02.752Z,100628.44
2023-05-10T08:33:29.417Z,100633.38
2023-05-10T08:35:55.991Z,100633.75
2023-05-10T08:38:22.798Z,100633.06
2023-05-10T08:40:51.889Z,100638.28
2023-05-10T08:43:19.367Z,100633.09
2023-05-10T08:45:47.985Z,100639.50
2023-05-10T08:48:15.315Z,100640.19
2023-05-10T08:50:42.985Z,100648.97
2023-05-10T08:53:14.192Z,100652.34
2023-05-10T08:55:43.751Z,100644.13
2023-05-10T08:58:10.852Z,100656.75
2023-05-10T09:00:40.614Z,100635.84
2023-05-10T09:03:08.093Z,100639.06
2023-05-10T09:05:34.893Z,100643.78
2023-05-10T09:08:01.560Z,100649.72
2023-05-10T09:10:29.249Z,100648.88
2023-05-10T09:12:59.344Z,100656.13
2023-05-10T09:15:26.869Z,100647.66
2023-05-10T09:17:53.725Z,100643.97
2023-05-10T09:20:20.735Z,100647.66
2023-05-10T09:22:47.564Z,100639.44
2023-05-10T09:25:16.384Z,100639.78
2023-05-10T09:27:47.260Z,100650.09
2023-05-10T09:30:26.871Z,100638.97
2023-05-10T09:32:54.627Z,100634.09
2023-05-10T09:35:25.038Z,100634.63
2023-05-10T09:37:54.982Z,100632.59
2023-05-10T09:40:26.028Z,100628.22
2023-05-10T09:43:00.917Z,100645.97
2023-05-10T09:45:32.962Z,100628.94
2023-05-10T09:48:01.532Z,100638.56
2023-05-10T09:50:28.679Z,100623.38
2023-05-10T09:53:04.212Z,100640.59
2023-05-10T09:55:45.672Z,100638.72
2023-05-10T09:58:15.046Z,100626.25
2023-05-10T10:00:44.230Z,100625.56
2023-05-10T10:03:19.408Z,100629.63
2023-05-10T10:05:47.671Z,100621.84
2023-05-10T10:08:15.113Z,100631.97
2023-05-10T10:10:42.551Z,100634.34
2023-05-10T10:13:09.551Z,100626.94
2023-05-10T10:15:36.508Z,100628.94
2023-05-10T10:18:05.285Z,100625.22
2023-05-10T10:20:32.316Z,100633.00
2023-05-10T10:22:59.047Z,100632.66
2023-05-10T10:25:26.505Z,100628.28
2023-05-10T10:27:53.236Z,100632.66
2023-05-10T10:30:43.219Z,100632.47
2023-05-10T10:33:29.225Z,100627.91
2023-05-10T10:35:58.984Z,100627.59
2023-05-10T10:38:25.696Z,100622.53
2023-05-10T10:41:13.841Z,100618.47
2023-05-10T10:43:40.485Z,100626.25
2023-05-10T10:46:10.231Z,100617.97
2023-05-10T10:48:37.045Z,100616.78
2023-05-10T10:51:04.042Z,100618.81
2023-05-10T10:53:30.810Z,100620.50
2023-05-10T10:56:11.839Z,100603.13
2023-05-10T10:58:39.673Z,100603.97
2023-05-10T11:01:19.783Z,100604.63
2023-05-10T11:04:01.581Z,100599.91
2023-05-10T11:06:36.128Z,100603.28
2023-05-10T11:09:10.677Z,100599.56
2023-05-10T11:11:59.585Z,100596.84
2023-05-10T11:14:26.424Z,100601.25
2023-05-10T11:16:53.241Z,100591.09
2023-05-10T11:19:20.372Z,100588.03
2023-05-10T11:22:13.951Z,100597.69
2023-05-10T11:24:40.653Z,100585.50
2023-05-10T11:27:07.460Z,100589.91
2023-05-10T11:29:34.364Z,100580.59
2023-05-10T11:32:01.386Z,100583.97
2023-05-10T11:34:34.553Z,100589.38
2023-05-10T11:37:01.903Z,100588.03
2023-05-10T11:39:30.002Z,100588.38
2023-05-10T11:41:56.819Z,100582.78
2023-05-10T11:44:23.632Z,100593.09
2023-05-10T11:46:50.663Z,100592.41
2023-05-10T11:49:17.448Z,100588.34
2023-05-10T11:51:44.722Z,100583.09
2023-05-10T11:54:12.382Z,100587.97
2023-05-10T11:56:40.491Z,100586.28
2023-05-10T11:59:08.889Z,100594.03
2023-05-10T12:01:36.454Z,100600.13
2023-05-10T12:04:03.480Z,100599.78
2023-05-10T12:06:33.034Z,100593.91
2023-05-10T12:09:00.091Z,100606.53
2023-05-10T12:11:28.434Z,100606.84
2023-05-10T12:13:56.042Z,100599.09
2023-05-10T12:16:23.519Z,100613.28
2023-05-10T12:18:54.673Z,100602.78
2023-05-10T12:21:22.487Z,100610.06
2023-05-10T12:23:53.912Z,100609.38
2023-05-10T12:26:25.508Z,100618.00
2023-05-10T12:28:52.086Z,100608.53
2023-05-10T12:31:18.815Z,100612.22
2023-05-10T12:33:47.333Z,100613.22
2023-05-10T12:36:15.850Z,100609.53
2023-05-10T12:38:44.577Z,100613.91
2023-05-10T12:41:13.245Z,100612.91
2023-05-10T12:43:40.501Z,100610.34
2023-05-10T12:46:12.098Z,100618.66
2023-05-10T12:48:40.313Z,100616.59
2023-05-10T12:51:10.274Z,100616.97
2023-05-10T12:53:37.321Z,100620.34
2023-05-10T12:56:03.988Z,100610.88
2023-05-10T13:01:03.384Z,100616.94
2023-05-10T13:03:30.147Z,100611.16
2023-05-10T13:05:56.839Z,100606.13
2023-05-10T13:08:23.492Z,100609.13
2023-05-10T13:10:50.389Z,100608.44
2023-05-10T13:13:16.877Z,100611.66
2023-05-10T13:15:43.482Z,100608.13
2023-05-10T13:18:10.128Z,100601.19
2023-05-10T13:20:36.803Z,100606.09
2023-05-10T13:23:03.723Z,100596.94
2023-05-10T13:25:30.999Z,100589.16
2023-05-10T13:27:57.713Z,100593.97
2023-05-10T13:30:24.976Z,100593.16
2023-05-10T13:32:51.806Z,100593.88
2023-05-10T13:35:18.454Z,100599.63
2023-05-10T13:37:45.237Z,100595.59
2023-05-10T13:40:11.998Z,100597.44
2023-05-10T13:42:38.647Z,100597.34
2023-05-10T13:45:06.018Z,100588.84
2023-05-10T13:47:32.758Z,100585.84
2023-05-10T13:49:59.469Z,100589.56
2023-05-10T13:52:26.910Z,100589.88
2023-05-10T13:54:55.907Z,100590.53
2023-05-10T13:57:24.078Z,100582.06
2023-05-10T13:59:51.345Z,100588.31
2023-05-10T14:02:18.164Z,100590.00
2023-05-10T14:04:44.821Z,100585.09
2023-05-10T14:07:11.484Z,100569.19
2023-05-10T14:09:37.994Z,100572.28
2023-05-10T14:12:04.700Z,100571.22
2023-05-10T14:14:31.532Z,100572.22
2023-05-10T14:16:58.179Z,100568.28
2023-05-10T14:19:24.681Z,100565.06
2023-05-10T14:21:53.012Z,100562.50
2023-05-10T14:24:19.632Z,100560.06
2023-05-10T14:26:46.204Z,100555.22
2023-05-10T14:29:12.886Z,100555.88
2023-05-10T14:31:41.382Z,100545.41
2023-05-10T14:34:07.946Z,100555.22
2023-05-10T14:36:34.630Z,100547.81
2023-05-10T14:39:01.177Z,100535.28
2023-05-10T14:41:27.729Z,100536.13
2023-05-10T14:43:54.289Z,100540.34
2023-05-10T14:46:21.153Z,100542.03
2023-05-10T14:48:47.700Z,100526.22
2023-05-10T14:51:14.419Z,100536.06
2023-05-10T14:53:41.182Z,100535.88
2023-05-10T14:56:08.703Z,100534.72
2023-05-10T14:58:35.276Z,100533.22
2023-05-10T15:01:02.186Z,100533.22
2023-05-10T15:03:29.640Z,100524.75
2023-05-10T15:05:58.603Z,100529.25
2023-05-10T15:08:25.691Z,100534.69
2023-05-10T15:10:52.719Z,100530.28
2023-05-10T15:13:19.224Z,100531.03
2023-05-10T15:15:45.911Z,100525.47
2023-05-10T15:18:12.833Z,100527.66
2023-05-10T15:20:39.874Z,100529.00
2023-05-10T15:23:06.608Z,100532.53
2023-05-10T15:25:35.875Z,100527.13
2023-05-10T15:28:03.988Z,100535.09
2023-05-10T15:30:30.760Z,100519.69
2023-05-10T15:33:00.327Z,100531.72
2023-05-10T15:35:27.867Z,100534.72
2023-05-10T15:38:01.982Z,100532.41
2023-05-10T15:40:29.338Z,100520.91
2023-05-10T15:42:55.902Z,100519.59
2023-05-10T15:45:22.728Z,100524.63
2023-05-10T15:47:49.416Z,100526.84
2023-05-10T15:50:17.067Z,100526.66
2023-05-10T15:52:43.723Z,100519.59
2023-05-10T15:55:13.282Z,100521.59
2023-05-10T15:57:41.452Z,100518.41
2023-05-10T16:00:12.287Z,100518.88
2023-05-10T16:02:40.599Z,100521.59
2023-05-10T16:05:08.279Z,100519.25
2023-05-10T16:07:34.858Z,100521.97
2023-05-10T16:10:04.191Z,100518.22
2023-05-10T16:12:31.497Z,100523.19
2023-05-10T16:14:58.251Z,100521.16
2023-05-10T16:17:25.089Z,100512.69
2023-05-10T16:19:52.102Z,100512.19
2023-05-10T16:22:18.817Z,100508.34
2023-05-10T16:24:45.366Z,100510.75
2023-05-10T16:27:13.271Z,100522.38
2023-05-10T16:29:39.818Z,100519.00
2023-05-10T16:32:07.047Z,100509.88
2023-05-10T16:34:33.674Z,100515.78
2023-05-10T16:37:00.557Z,100511.75
2023-05-10T16:39:27.191Z,100516.28
2023-05-10T16:41:53.878Z,100514.25
2023-05-10T16:44:21.899Z,100513.06
2023-05-10T16:46:49.572Z,100507.84
2023-05-10T16:49:16.532Z,100509.50
2023-05-10T16:51:43.219Z,100509.50
2023-05-10T16:54:09.890Z,100510.38
2023-05-10T16:56:36.482Z,100512.59
2023-05-10T16:59:03.056Z,100515.31
2023-05-10T17:01:30.109Z,100522.94
2023-05-10T17:03:56.904Z,100526.16
2023-05-10T17:06:23.709Z,100517.22
2023-05-10T17:08:50.499Z,100517.72
2023-05-10T17:11:17.238Z,100520.28
2023-05-10T17:13:43.914Z,100515.03
2023-05-10T17:16:10.784Z,100515.69
2023-05-10T17:18:37.623Z,100515.19
2023-05-10T17:21:04.583Z,100519.06
2023-05-10T17:23:31.104Z,100520.28
2023-05-10T17:25:59.556Z,100523.81
2023-05-10T17:28:27.565Z,100518.25
2023-05-10T17:30:58.526Z,100523.47
2023-05-10T17:33:25.231Z,100526.50
2023-05-10T17:35:52.257Z,100526.34
2023-05-10T17:38:18.957Z,100530.72
2023-05-10T17:40:45.715Z,100527.84
2023-05-10T17:43:12.265Z,100526.16
2023-05-10T17:45:38.910Z,100529.06
2023-05-10T17:48:05.548Z,100524.66
2023-05-10T17:50:33.082Z,100523.13
2023-05-10T17:52:59.646Z,100525.31
2023-05-10T17:55:27.119Z,100531.22
2023-05-10T17:57:54.122Z,100528.03
2023-05-10T18:00:21.245Z,100532.25
2023-05-10T18:02:48.113Z,100520.41
2023-05-10T18:05:15.221Z,100528.69
2023-05-10T18:07:42.121Z,100526.16
2023-05-10T18:10:11.823Z,100534.94
2023-05-10T18:12:38.476Z,100537.66
2023-05-10T18:15:05.468Z,100543.72
2023-05-10T18:17:33.683Z,100538.66
2023-05-10T18:20:00.418Z,100542.03
2023-05-10T18:22:27.175Z,100528.22
2023-05-10T18:24:53.852Z,100541.53
2023-05-10T18:27:20.516Z,100547.63
2023-05-10T18:29:47.216Z,100544.06
2023-05-10T18:32:13.837Z,100550.31
2023-05-10T18:34:40.395Z,100531.91
2023-05-10T18:37:08.096Z,100548.47
2023-05-10T18:39:34.819Z,100544.91
2023-05-10T18:42:01.560Z,100547.63
2023-05-10T18:44:29.019Z,100552.84
2023-05-10T18:46:55.833Z,100550.13
2023-05-10T18:49:22.730Z,100557.59
2023-05-10T18:51:49.400Z,100547.81
2023-05-10T18:54:16.000Z,100547.81
2023-05-10T18:56:45.160Z,100547.63
2023-05-10T18:59:12.819Z,100544.06
2023-05-10T19:01:42.515Z,100552.34
2023-05-10T19:04:09.487Z,100548.13
2023-05-10T19:06:36.609Z,100548.50
2023-05-10T19:09:04.109Z,100546.31
2023-05-10T19:11:34.535Z,100544.78
2023-05-10T19:14:02.325Z,100550.84
2023-05-10T19:16:30.683Z,100548.34
2023-05-10T19:18:58.754Z,100546.81
2023-05-10T19:21:32.499Z,100537.38
2023-05-10T19:24:01.391Z,100546.50
2023-05-10T19:26:28.707Z,100565.44
2023-05-10T19:28:58.170Z,100563.91
2023-05-10T19:31:26.038Z,100563.56
2023-05-10T19:33:53.885Z,100572.16
2023-05-10T19:36:21.109Z,100563.88
2023-05-10T19:38:49.915Z,100563.88
2023-05-10T19:41:16.827Z,100565.41
2023-05-10T19:43:44.118Z,100576.88
2023-05-10T19:46:10.793Z,100569.44
2023-05-10T19:48:39.035Z,100571.78
2023-05-10T19:51:08.482Z,100578.72
2023-05-10T19:53:36.715Z,100583.94
2023-05-10T19:56:08.096Z,100576.50
2023-05-10T19:58:35.070Z,100571.78
2023-05-10T20:01:01.942Z,100566.72
2023-05-10T20:03:29.147Z,100567.72
2023-05-10T20:05:57.079Z,100558.13
2023-05-10T20:08:24.847Z,100556.09
2023-05-10T20:10:51.415Z,100554.06
2023-05-10T20:13:18.636Z,100558.63
2023-05-10T20:15:47.422Z,100565.88
2023-05-10T20:18:15.043Z,100576.88
2023-05-10T20:20:42.836Z,100562.88
2023-05-10T20:23:10.845Z,100567.72
2023-05-10T20:25:38.068Z,100568.09
2023-05-10T20:28:06.001Z,100568.09
2023-05-10T20:30:32.817Z,100561.34
2023-05-10T20:32:59.428Z,100555.59
2023-05-10T20:35:26.077Z,100549.53
2023-05-10T20:37:52.928Z,100559.66
2023-05-10T20:40:20.210Z,100559.34
2023-05-10T20:42:47.808Z,100555.78
2023-05-10T20:45:14.582Z,100564.56
2023-05-10T20:47:41.641Z,100572.84
2023-05-10T20:50:09.047Z,100561.66
2023-05-10T20:52:35.662Z,100579.59
2023-05-10T20:55:03.150Z,100572.81
2023-05-10T20:57:30.012Z,100573.81
2023-05-10T20:59:57.532Z,100570.13
2023-05-10T21:02:24.161Z,100565.38
2023-05-10T21:04:52.273Z,100564.38
2023-05-10T21:07:18.881Z,100570.31
2023-05-10T21:09:45.424Z,100562.69
2023-05-10T21:12:12.055Z,100554.22
2023-05-10T21:14:39.582Z,100566.75
2023-05-10T21:17:06.205Z,100564.72
2023-05-10T21:19:32.874Z,100563.88
2023-05-10T21:22:00.502Z,100557.47
2023-05-10T21:24:27.196Z,100556.59
2023-05-10T21:26:53.877Z,100552.19
2023-05-10T21:29:20.496Z,100551.19
2023-05-10T21:31:47.133Z,100552.56
2023-05-10T21:34:14.152Z,100552.19
2023-05-10T21:36:40.976Z,100550.53
2023-05-10T21:39:07.693Z,100555.75
2023-05-10T21:41:34.317Z,100554.09
2023-05-10T21:44:00.926Z,100555.94
2023-05-10T21:46:27.678Z,100548.16
2023-05-10T21:48:54.386Z,100544.63
2023-05-10T21:51:21.908Z,100552.19
2023-05-10T21:53:48.530Z,100550.03
2023-05-10T21:56:15.147Z,100553.56
2023-05-10T21:58:41.924Z,100551.88
2023-05-10T22:01:08.652Z,100546.81
2023-05-10T22:03:35.500Z,100551.72
2023-05-10T22:06:02.088Z,100555.78
2023-05-10T22:08:28.632Z,100551.03
2023-05-10T22:10:55.461Z,100544.47
2023-05-10T22:13:21.997Z,100545.16
2023-05-10T22:15:48.572Z,100545.31
2023-05-10T22:18:15.192Z,100549.03
2023-05-10T22:20:45.323Z,100543.44
2023-05-10T22:23:12.282Z,100535.34
2023-05-10T22:25:39.034Z,100542.44
2023-05-10T22:28:05.798Z,100547.00
2023-05-10T22:30:33.218Z,100543.63
2023-05-10T22:32:59.998Z,100535.69
2023-05-10T22:35:26.785Z,100529.25
2023-05-10T22:37:53.411Z,100524.22
2023-05-10T22:40:20.052Z,100525.56
2023-05-10T22:42:46.722Z,100520.00
2023-05-10T22:45:13.405Z,100515.78
2023-05-10T22:47:40.163Z,100519.16
2023-05-10T22:50:07.325Z,100519.16
2023-05-10T22:52:33.972Z,100518.16
2023-05-10T22:55:00.706Z,100513.44
2023-05-10T22:57:27.336Z,100510.06
2023-05-10T22:59:53.957Z,100511.56
2023-05-10T23:02:20.810Z,100501.59
2023-05-10T23:04:47.511Z,100504.97
2023-05-10T23:07:14.176Z,100492.50
2023-05-10T23:09:40.757Z,100493.31
2023-05-10T23:12:07.357Z,100491.66
2023-05-10T23:14:33.908Z,100496.03
2023-05-10T23:17:00.548Z,100488.75
2023-05-10T23:19:27.189Z,100490.47
2023-05-10T23:21:53.884Z,100489.63
2023-05-10T23:24:20.543Z,100485.88
2023-05-10T23:26:47.446Z,100476.78
2023-05-10T23:29:14.347Z,100475.44
2023-05-10T23:31:45.474Z,100479.81
2023-05-10T23:34:12.489Z,100474.41
2023-05-10T23:36:39.388Z,100474.41
2023-05-10T23:39:06.630Z,100477.97
2023-05-10T23:41:33.219Z,100478.44
2023-05-10T23:44:00.170Z,100480.34
2023-05-10T23:46:26.843Z,100468.84
2023-05-10T23:48:53.537Z,100465.13
2023-05-10T23:51:20.104Z,100463.44
2023-05-10T23:53:46.790Z,100456.53
2023-05-10T23:56:13.384Z,100458.38
2023-05-10T23:58:40.117Z,100455.84
